Time;durP1;ratioP1;P1;durP2;ratioP2;P2;SDS_P1;SDS_P2;PMS_P1;PMS_P2;Temp;Humidity;BMP_temperature;BMP_pressure;BME280_temperature;BME280_humidity;BME280_pressure;Samples;Min_cycle;Max_cycle;Signal;HPM_P1;HPM_P2
2021/01/11 00:00:57;;;;;;;7.13;1.03;;;3.40;99.90;;;;;;5051878;28;20670;-88
2021/01/11 00:03:22;;;;;;;5.30;1.00;;;3.40;99.90;;;;;;5051511;28;20281;-89
2021/01/11 00:05:48;;;;;;;4.20;0.53;;;3.40;99.90;;;;;;5052603;28;20199;-89
2021/01/11 00:08:14;;;;;;;3.10;0.90;;;3.50;99.90;;;;;;5051195;28;20544;-89
2021/01/11 00:10:40;;;;;;;7.17;1.37;;;3.50;99.90;;;;;;5052585;28;20199;-89
2021/01/11 00:13:05;;;;;;;5.97;1.27;;;3.40;99.90;;;;;;5052898;28;20171;-88
2021/01/11 00:15:31;;;;;;;5.17;1.00;;;3.40;99.90;;;;;;5052396;28;20184;-89
2021/01/11 00:17:56;;;;;;;6.03;1.10;;;3.40;99.90;;;;;;5050636;28;20190;-88
2021/01/11 00:20:22;;;;;;;7.53;1.00;;;3.40;99.90;;;;;;5053031;28;20311;-88
2021/01/11 00:22:47;;;;;;;10.13;1.20;;;3.30;99.90;;;;;;5053358;28;20267;-88
2021/01/11 00:25:14;;;;;;;7.37;1.13;;;3.30;99.90;;;;;;5053361;28;20696;-89
2021/01/11 00:27:40;;;;;;;8.67;1.37;;;3.40;99.90;;;;;;5049305;28;20552;-88
2021/01/11 00:30:07;;;;;;;7.70;0.87;;;3.40;99.90;;;;;;5036664;28;20212;-89
2021/01/11 00:32:34;;;;;;;5.70;1.00;;;3.40;99.90;;;;;;5056855;28;20208;-88
2021/01/11 00:35:00;;;;;;;4.00;0.70;;;3.40;99.90;;;;;;5037643;28;20230;-89
2021/01/11 00:37:26;;;;;;;5.33;0.80;;;3.40;99.90;;;;;;5054425;28;20590;-88
2021/01/11 00:39:53;;;;;;;5.33;1.10;;;3.40;99.90;;;;;;5052446;28;20236;-88
2021/01/11 00:42:18;;;;;;;7.23;1.13;;;3.40;99.90;;;;;;5053862;28;20191;-88
2021/01/11 00:44:44;;;;;;;2.90;0.77;;;3.40;99.90;;;;;;5049074;28;20176;-88
2021/01/11 00:47:09;;;;;;;7.87;1.27;;;3.50;99.90;;;;;;5052313;28;20179;-88
2021/01/11 00:49:35;;;;;;;7.30;1.10;;;3.40;99.90;;;;;;5053176;28;20205;-88
2021/01/11 00:52:05;;;;;;;5.40;0.93;;;3.40;99.90;;;;;;5054236;28;20191;-88
2021/01/11 00:54:30;;;;;;;7.53;0.70;;;3.50;99.90;;;;;;5054094;28;20191;-88
2021/01/11 00:56:55;;;;;;;6.10;1.20;;;3.50;99.90;;;;;;5054991;28;20172;-89
2021/01/11 00:59:21;;;;;;;11.27;1.00;;;3.40;99.90;;;;;;5054979;28;20213;-89
2021/01/11 01:01:50;;;;;;;7.87;2.03;;;3.40;99.90;;;;;;5056360;28;20177;-89
2021/01/11 01:04:17;;;;;;;9.17;1.00;;;3.50;99.90;;;;;;5055886;28;20176;-88
2021/01/11 01:06:42;;;;;;;7.53;0.93;;;3.50;99.90;;;;;;5056152;28;20180;-88
2021/01/11 01:09:08;;;;;;;8.50;1.10;;;3.50;99.90;;;;;;5054716;28;20192;-89
2021/01/11 01:11:37;;;;;;;7.83;1.23;;;3.50;99.90;;;;;;5055566;28;20586;-88
2021/01/11 01:14:03;;;;;;;6.67;0.83;;;3.50;99.90;;;;;;5055063;28;20180;-87
2021/01/11 01:16:29;;;;;;;6.40;0.80;;;3.50;99.90;;;;;;5055457;28;20176;-88
2021/01/11 01:18:54;;;;;;;9.97;1.03;;;3.60;99.90;;;;;;5054914;28;20750;-88
2021/01/11 01:21:21;;;;;;;4.93;0.83;;;3.60;99.90;;;;;;5056062;28;20666;-87
2021/01/11 01:23:46;;;;;;;7.87;1.67;;;3.60;99.90;;;;;;5053263;28;20219;-88
2021/01/11 01:26:12;;;;;;;6.63;0.90;;;3.70;99.90;;;;;;5053304;28;20173;-88
2021/01/11 01:28:38;;;;;;;8.43;1.10;;;3.70;99.90;;;;;;5055457;28;20191;-89
2021/01/11 01:31:03;;;;;;;10.90;1.30;;;3.60;99.90;;;;;;5056475;28;20223;-88
2021/01/11 01:33:29;;;;;;;10.53;1.37;;;3.70;99.90;;;;;;5055501;28;20187;-87
2021/01/11 01:35:54;;;;;;;10.90;1.13;;;3.70;99.90;;;;;;5058561;28;20180;-88
2021/01/11 01:38:20;;;;;;;8.30;1.13;;;3.70;99.90;;;;;;5057898;28;20180;-89
2021/01/11 01:40:46;;;;;;;5.67;0.90;;;3.70;99.90;;;;;;5058447;28;20195;-89
2021/01/11 01:43:12;;;;;;;5.93;0.90;;;3.70;99.90;;;;;;5058541;28;20233;-88
2021/01/11 01:45:38;;;;;;;8.13;0.90;;;3.80;99.90;;;;;;5058733;28;20232;-88
2021/01/11 01:48:05;;;;;;;4.67;1.20;;;3.70;99.90;;;;;;5055872;28;20172;-88
2021/01/11 01:50:31;;;;;;;5.60;1.00;;;3.70;99.90;;;;;;5055982;28;20238;-88
2021/01/11 01:52:56;;;;;;;7.57;1.00;;;3.80;99.90;;;;;;5056626;28;20179;-88
2021/01/11 01:55:22;;;;;;;7.97;1.10;;;3.80;99.90;;;;;;5056198;28;20175;-88
2021/01/11 01:57:49;;;;;;;8.37;0.80;;;3.80;99.90;;;;;;5055054;28;20194;-88
2021/01/11 02:00:16;;;;;;;8.10;0.90;;;3.80;99.90;;;;;;5055044;28;20215;-88
2021/01/11 02:02:42;;;;;;;5.60;0.97;;;3.80;99.90;;;;;;5054856;28;20176;-88
2021/01/11 02:05:09;;;;;;;9.00;1.63;;;3.80;99.90;;;;;;5054594;28;20267;-88
2021/01/11 02:08:06;;;;;;;4.33;1.00;;;3.80;99.90;;;;;;5054770;28;20234;-89
2021/01/11 02:11:19;;;;;;;7.47;0.93;;;3.80;99.90;;;;;;5058351;28;20232;-88
2021/01/11 02:30:36;;;;;;;5.80;0.80;;;3.80;99.90;;;;;;5141344;22;20297;-87
2021/01/11 02:33:07;;;;;;;8.97;0.90;;;3.80;99.90;;;;;;5077020;28;20238;-88
2021/01/11 02:39:04;;;;;;;7.60;1.20;;;3.80;99.90;;;;;;5179545;22;20598;-87
2021/01/11 02:41:30;;;;;;;6.07;1.10;;;3.80;99.90;;;;;;5044661;28;20167;-88
2021/01/11 02:43:55;;;;;;;5.90;1.10;;;3.80;99.90;;;;;;5042339;28;20179;-88
2021/01/11 02:46:21;;;;;;;5.80;0.77;;;3.90;99.90;;;;;;5038320;28;20175;-87
2021/01/11 02:48:55;;;;;;;5.73;0.80;;;3.80;99.90;;;;;;5037289;28;20416;-86
2021/01/11 06:01:19;;;;;;;15.30;6.03;;;5.00;99.90;;;;;;5062474;28;20228;-88
2021/01/11 06:03:44;;;;;;;15.50;5.97;;;5.00;99.90;;;;;;5044057;28;20268;-87
2021/01/11 06:06:10;;;;;;;14.70;5.97;;;5.00;99.90;;;;;;5044248;28;20186;-88
2021/01/11 06:08:36;;;;;;;14.80;6.20;;;5.00;99.90;;;;;;5038240;28;20212;-89
2021/01/11 06:11:02;;;;;;;14.10;6.23;;;5.00;99.90;;;;;;5034645;28;20201;-87
2021/01/11 06:13:28;;;;;;;15.17;5.47;;;5.00;99.90;;;;;;5046440;28;20221;-89
2021/01/11 06:15:55;;;;;;;13.93;5.37;;;5.10;99.90;;;;;;5048467;28;20181;-86
2021/01/11 06:18:22;;;;;;;15.93;5.77;;;5.10;99.90;;;;;;5051417;28;20178;-88
2021/01/11 06:20:48;;;;;;;14.70;6.27;;;5.10;99.90;;;;;;5055158;28;20212;-87
2021/01/11 06:23:25;;;;;;;16.17;6.57;;;5.20;99.90;;;;;;5051493;28;20164;-88
2021/01/11 06:25:51;;;;;;;17.20;6.20;;;5.10;99.90;;;;;;5046998;28;20172;-89
2021/01/11 06:28:29;;;;;;;18.97;7.97;;;5.10;99.90;;;;;;5048990;28;20673;-89
2021/01/11 06:31:10;;;;;;;17.73;6.90;;;5.20;99.90;;;;;;5044050;28;20200;-89
2021/01/11 06:33:35;;;;;;;13.17;5.40;;;5.20;99.90;;;;;;5045104;28;20194;-90
2021/01/11 06:36:16;;;;;;;17.83;6.80;;;5.20;99.90;;;;;;5051220;28;20221;-89
2021/01/11 06:38:44;;;;;;;15.33;6.33;;;5.20;99.90;;;;;;5048963;28;20188;-88
2021/01/11 06:41:12;;;;;;;14.60;6.57;;;5.20;99.90;;;;;;5049950;28;20212;-89
2021/01/11 06:43:38;;;;;;;18.07;6.33;;;5.20;99.90;;;;;;5062892;28;20648;-88
2021/01/11 06:46:05;;;;;;;13.80;6.20;;;5.20;99.90;;;;;;5049805;28;20231;-89
2021/01/11 06:51:51;;;;;;;15.43;6.00;;;5.20;99.90;;;;;;5131328;22;20268;-89
2021/01/11 11:26:02;;;;;;;23.17;10.00;;;5.50;99.90;;;;;;5026820;28;20226;-89
2021/01/11 11:28:32;;;;;;;29.77;12.07;;;5.50;99.90;;;;;;5025439;28;20192;-90
2021/01/11 11:30:57;;;;;;;23.17;9.97;;;5.50;99.90;;;;;;5026630;28;20194;-89
2021/01/11 11:33:24;;;;;;;26.17;11.90;;;5.50;99.90;;;;;;5008155;28;20212;-90
2021/01/11 11:35:51;;;;;;;25.67;10.47;;;5.50;99.90;;;;;;5024274;28;20177;-89
2021/01/11 11:38:17;;;;;;;24.67;11.10;;;5.50;99.90;;;;;;5007966;28;20231;-90
2021/01/11 11:40:42;;;;;;;23.97;10.60;;;5.50;99.90;;;;;;5012821;28;20216;-90
2021/01/11 11:43:17;;;;;;;22.47;9.50;;;5.40;99.90;;;;;;5010921;28;20194;-89
2021/01/11 11:45:43;;;;;;;20.47;9.60;;;5.50;99.90;;;;;;5008461;28;20217;-89
2021/01/11 11:48:10;;;;;;;18.87;8.57;;;5.50;99.90;;;;;;5010530;28;20219;-88
2021/01/11 11:50:39;;;;;;;19.83;9.30;;;5.50;99.90;;;;;;5002213;28;20251;-88
2021/01/11 11:53:05;;;;;;;22.80;9.30;;;5.40;99.90;;;;;;5011215;28;20687;-88
2021/01/11 11:55:30;;;;;;;26.30;10.37;;;5.40;99.90;;;;;;5009682;28;20191;-88
2021/01/11 11:57:57;;;;;;;23.27;10.40;;;5.40;99.90;;;;;;5008206;28;20287;-89
2021/01/11 12:00:22;;;;;;;27.03;11.87;;;5.40;99.90;;;;;;5010762;28;20348;-89
2021/01/11 12:02:50;;;;;;;24.73;10.10;;;5.40;99.90;;;;;;5008249;28;20273;-88
2021/01/11 12:05:18;;;;;;;29.73;12.63;;;5.40;99.90;;;;;;5011629;28;20185;-89
2021/01/11 12:07:48;;;;;;;28.93;12.27;;;5.40;99.90;;;;;;5032545;28;20715;-88
2021/01/11 12:10:13;;;;;;;29.50;11.83;;;5.30;99.90;;;;;;5014795;28;20377;-88
2021/01/11 12:12:39;;;;;;;24.63;12.33;;;5.40;99.90;;;;;;5011936;28;20208;-90
2021/01/11 12:15:06;;;;;;;30.70;11.53;;;5.30;99.90;;;;;;5009083;28;20298;-89
2021/01/11 12:17:32;;;;;;;26.70;12.87;;;5.40;99.90;;;;;;5030135;28;20193;-88
2021/01/11 12:19:57;;;;;;;38.53;12.53;;;5.40;99.90;;;;;;5032578;28;20282;-89
2021/01/11 12:22:23;;;;;;;28.27;11.30;;;5.40;99.90;;;;;;5033202;28;20553;-89
2021/01/11 12:24:49;;;;;;;32.73;14.70;;;5.40;99.90;;;;;;5014881;28;20429;-88
2021/01/11 12:27:14;;;;;;;28.37;11.70;;;5.50;99.90;;;;;;5015604;28;20187;-88
2021/01/11 12:29:40;;;;;;;25.17;11.13;;;5.40;99.90;;;;;;5033608;28;20195;-88
2021/01/11 12:32:07;;;;;;;27.80;11.17;;;5.50;99.90;;;;;;5017376;28;20222;-88
2021/01/11 12:34:38;;;;;;;25.63;9.90;;;5.40;99.90;;;;;;5016554;28;20212;-88
2021/01/11 12:37:04;;;;;;;30.30;11.43;;;5.40;99.90;;;;;;5014578;28;20569;-88
2021/01/11 12:39:33;;;;;;;28.93;10.47;;;5.40;99.90;;;;;;5012535;28;20206;-88
2021/01/11 12:41:58;;;;;;;22.13;10.30;;;5.40;99.90;;;;;;5015726;28;20203;-88
2021/01/11 12:44:24;;;;;;;22.83;9.73;;;5.40;99.90;;;;;;5019795;28;20256;-88
2021/01/11 12:46:49;;;;;;;22.20;9.63;;;5.30;99.90;;;;;;5016542;28;20190;-89
2021/01/11 12:49:15;;;;;;;29.40;12.03;;;5.30;99.90;;;;;;5032331;28;20727;-90
2021/01/11 12:51:41;;;;;;;25.47;10.27;;;5.40;99.90;;;;;;5028582;28;20194;-89
2021/01/11 12:54:06;;;;;;;24.83;9.87;;;5.40;99.90;;;;;;5014093;28;20208;-88
2021/01/11 12:56:32;;;;;;;24.80;10.17;;;5.40;99.90;;;;;;5022878;28;20234;-88
2021/01/11 12:58:58;;;;;;;19.30;8.77;;;5.30;99.90;;;;;;5009899;28;20187;-88
2021/01/11 13:01:33;;;;;;;24.83;10.80;;;5.30;99.90;;;;;;5009717;28;20178;-89
2021/01/11 13:04:01;;;;;;;23.73;9.47;;;5.30;99.90;;;;;;5019947;28;20208;-88
2021/01/11 13:06:28;;;;;;;23.27;9.00;;;5.30;99.90;;;;;;5015078;28;20186;-87
2021/01/11 13:08:54;;;;;;;20.53;8.37;;;5.20;99.90;;;;;;5028895;28;20197;-88
2021/01/11 13:11:22;;;;;;;23.93;9.97;;;5.20;99.90;;;;;;5018348;28;20653;-89
2021/01/11 13:13:49;;;;;;;22.13;9.77;;;5.20;99.90;;;;;;5030266;28;20211;-88
2021/01/11 13:16:38;;;;;;;20.40;8.97;;;5.20;99.90;;;;;;5029701;28;20195;-88
2021/01/11 13:19:05;;;;;;;20.57;8.67;;;5.30;99.90;;;;;;5015332;28;20189;-88
2021/01/11 13:21:31;;;;;;;19.83;8.23;;;5.30;99.90;;;;;;5014674;28;20686;-88
2021/01/11 13:23:58;;;;;;;20.93;8.77;;;5.30;99.90;;;;;;5028579;28;20223;-89
2021/01/11 13:26:28;;;;;;;16.80;7.33;;;5.20;99.90;;;;;;5010536;28;20226;-89
2021/01/11 13:29:08;;;;;;;15.83;7.93;;;5.30;99.90;;;;;;5013515;28;20187;-89
2021/01/11 13:31:41;;;;;;;17.10;7.13;;;5.20;99.90;;;;;;5018445;28;20649;-88
2021/01/11 13:34:07;;;;;;;17.87;8.27;;;5.20;99.90;;;;;;5017353;28;20662;-88
2021/01/11 13:36:33;;;;;;;16.67;7.40;;;5.20;99.90;;;;;;5017186;28;20267;-89
2021/01/11 13:39:04;;;;;;;16.70;7.73;;;5.20;99.90;;;;;;5010973;28;20606;-89
2021/01/11 13:41:31;;;;;;;17.47;8.03;;;5.20;99.90;;;;;;5004989;28;20668;-89
2021/01/11 13:43:57;;;;;;;18.90;8.27;;;5.10;99.90;;;;;;5006449;28;20206;-87
2021/01/11 13:46:40;;;;;;;19.50;7.13;;;5.10;99.90;;;;;;5016350;28;20278;-88
2021/01/11 13:49:06;;;;;;;20.97;8.17;;;5.20;99.90;;;;;;5010216;28;20736;-88
2021/01/11 13:51:32;;;;;;;15.83;7.53;;;5.20;99.90;;;;;;5017023;28;20641;-89
2021/01/11 13:53:57;;;;;;;22.43;9.33;;;5.20;99.90;;;;;;5012619;28;20203;-88
2021/01/11 13:56:25;;;;;;;18.73;7.87;;;5.10;99.90;;;;;;5017739;28;20191;-88
2021/01/11 13:58:51;;;;;;;19.83;9.40;;;5.10;99.90;;;;;;5016421;28;20220;-88
2021/01/11 14:01:17;;;;;;;16.23;7.30;;;5.10;99.90;;;;;;5017818;28;20204;-87
2021/01/11 14:03:43;;;;;;;23.27;10.10;;;5.10;99.90;;;;;;5010544;28;20207;-88
2021/01/11 14:06:09;;;;;;;19.93;8.03;;;5.10;99.90;;;;;;5018651;28;20908;-88
2021/01/11 14:08:35;;;;;;;26.73;10.53;;;5.20;99.90;;;;;;5013202;28;20214;-88
2021/01/11 14:11:00;;;;;;;22.70;10.27;;;5.10;99.90;;;;;;5014982;28;20191;-88
2021/01/11 14:13:26;;;;;;;23.53;10.27;;;5.20;99.90;;;;;;5011618;28;20706;-88
2021/01/11 14:15:51;;;;;;;19.67;9.07;;;5.20;99.90;;;;;;5013889;28;20179;-87
2021/01/11 14:18:18;;;;;;;19.50;9.07;;;5.20;99.90;;;;;;5016726;28;20181;-88
2021/01/11 14:20:43;;;;;;;21.00;9.50;;;5.20;99.90;;;;;;5017218;28;20199;-85
2021/01/11 14:23:09;;;;;;;18.87;9.03;;;5.30;99.90;;;;;;5039862;28;20283;-87
2021/01/11 14:25:34;;;;;;;22.83;9.67;;;5.20;99.90;;;;;;5020164;28;20204;-87
2021/01/11 14:28:00;;;;;;;21.50;9.67;;;5.30;99.90;;;;;;5014764;28;20177;-88
2021/01/11 14:30:26;;;;;;;22.63;8.77;;;5.30;99.90;;;;;;5012830;28;20190;-86
2021/01/11 14:32:51;;;;;;;22.87;9.33;;;5.30;99.90;;;;;;5017844;28;20269;-87
2021/01/11 14:35:17;;;;;;;23.60;9.30;;;5.20;99.90;;;;;;5022314;28;20677;-87
2021/01/11 14:37:43;;;;;;;22.50;8.77;;;5.20;99.90;;;;;;5034242;28;20185;-87
2021/01/11 14:40:09;;;;;;;18.77;8.20;;;5.20;99.90;;;;;;5028855;28;20617;-86
2021/01/11 14:42:38;;;;;;;24.53;9.40;;;5.20;99.90;;;;;;5030374;28;20642;-86
2021/01/11 14:45:04;;;;;;;15.80;7.60;;;5.20;99.90;;;;;;5013809;28;20198;-87
2021/01/11 14:47:29;;;;;;;18.43;8.07;;;5.20;99.90;;;;;;5017139;28;20711;-87
2021/01/11 14:49:55;;;;;;;21.30;7.83;;;5.30;99.90;;;;;;5018709;28;20196;-87
2021/01/11 14:52:22;;;;;;;16.40;6.73;;;5.20;99.90;;;;;;5011744;28;20192;-88
2021/01/11 14:54:48;;;;;;;17.37;6.83;;;5.20;99.90;;;;;;5014340;28;20205;-88
2021/01/11 14:57:14;;;;;;;19.73;7.43;;;5.20;99.90;;;;;;5016602;28;20287;-88
2021/01/11 14:59:39;;;;;;;18.13;7.50;;;5.20;99.90;;;;;;5014311;28;20206;-87
2021/01/11 15:02:05;;;;;;;20.33;7.73;;;5.30;99.90;;;;;;5010090;28;20184;-87
2021/01/11 15:04:31;;;;;;;14.17;6.57;;;5.30;99.90;;;;;;5035046;28;20204;-86
2021/01/11 15:06:57;;;;;;;18.30;6.93;;;5.30;99.90;;;;;;5013413;28;20173;-87
2021/01/11 15:09:23;;;;;;;14.30;6.03;;;5.30;99.90;;;;;;5015843;28;20205;-87
2021/01/11 15:11:53;;;;;;;18.30;5.70;;;5.30;99.90;;;;;;5029399;28;20182;-86
2021/01/11 15:14:19;;;;;;;18.00;6.50;;;5.30;99.90;;;;;;5032515;28;20299;-87
2021/01/11 15:16:45;;;;;;;16.33;5.33;;;5.30;99.90;;;;;;5038014;28;20190;-86
2021/01/11 15:19:18;;;;;;;13.30;5.33;;;5.30;99.90;;;;;;5019762;28;20187;-85
2021/01/11 15:21:44;;;;;;;16.67;5.70;;;5.30;99.90;;;;;;5038324;28;20242;-84
2021/01/11 15:24:10;;;;;;;16.20;5.23;;;5.30;99.90;;;;;;5013999;28;20546;-84
2021/01/11 15:26:36;;;;;;;14.43;5.27;;;5.30;99.90;;;;;;5022615;28;20202;-84
2021/01/11 15:29:03;;;;;;;9.97;5.17;;;5.30;99.90;;;;;;5022518;28;20559;-84
2021/01/11 15:31:30;;;;;;;12.27;4.27;;;5.30;99.90;;;;;;5041625;28;20531;-85
2021/01/11 15:33:56;;;;;;;27.17;9.70;;;5.30;99.90;;;;;;5021571;28;20860;-84
2021/01/11 15:36:30;;;;;;;12.57;4.63;;;5.30;99.90;;;;;;5020528;28;20174;-85
2021/01/11 15:38:57;;;;;;;10.87;4.43;;;5.30;99.90;;;;;;5010676;28;20564;-85
2021/01/11 15:41:24;;;;;;;14.17;3.97;;;5.30;99.90;;;;;;5022528;28;20274;-85
2021/01/11 15:43:50;;;;;;;11.97;4.17;;;5.30;99.90;;;;;;5041601;28;20224;-85
2021/01/11 15:46:20;;;;;;;14.03;5.07;;;5.40;99.90;;;;;;5016454;28;20217;-85
2021/01/11 15:48:46;;;;;;;12.47;4.10;;;5.40;99.90;;;;;;5032416;28;20191;-85
2021/01/11 15:51:12;;;;;;;11.33;4.37;;;5.40;99.90;;;;;;5016175;28;20174;-85
2021/01/11 15:53:37;;;;;;;9.93;4.37;;;5.50;99.90;;;;;;5011406;28;20192;-87
2021/01/11 15:56:03;;;;;;;12.50;4.83;;;5.40;99.90;;;;;;5017739;28;20185;-87
2021/01/11 15:58:29;;;;;;;10.17;4.10;;;5.40;99.90;;;;;;5036474;28;20256;-87
2021/01/11 16:00:55;;;;;;;10.83;4.60;;;5.40;99.90;;;;;;5030003;28;20237;-88
2021/01/11 16:03:21;;;;;;;14.43;5.90;;;5.40;99.90;;;;;;5017333;28;20201;-87
2021/01/11 16:05:46;;;;;;;13.17;5.50;;;5.40;99.90;;;;;;5035969;28;20218;-85
2021/01/11 16:08:12;;;;;;;11.33;4.83;;;5.40;99.90;;;;;;5029924;28;20526;-88
2021/01/11 16:10:37;;;;;;;16.47;5.30;;;5.40;99.90;;;;;;5014464;28;20191;-88
2021/01/11 16:13:03;;;;;;;14.30;5.17;;;5.40;99.90;;;;;;5020953;28;20190;-86
2021/01/11 16:15:28;;;;;;;12.93;5.63;;;5.40;99.90;;;;;;5012909;28;20550;-87
2021/01/11 16:17:54;;;;;;;17.67;5.77;;;5.40;99.90;;;;;;5013171;28;20203;-87
2021/01/11 16:20:19;;;;;;;15.10;4.83;;;5.40;99.90;;;;;;5018864;28;20223;-87
2021/01/11 16:22:45;;;;;;;13.97;4.90;;;5.40;99.90;;;;;;5040081;28;20192;-87
2021/01/11 16:25:11;;;;;;;11.27;4.07;;;5.40;99.90;;;;;;5023330;28;20564;-87
2021/01/11 16:27:37;;;;;;;9.83;4.27;;;5.40;99.90;;;;;;5020108;28;20189;-87
2021/01/11 16:30:05;;;;;;;14.00;5.10;;;5.40;99.90;;;;;;5015953;28;20180;-87
2021/01/11 16:32:30;;;;;;;18.17;6.03;;;5.40;99.90;;;;;;5014144;28;20200;-87
2021/01/11 16:35:01;;;;;;;14.50;6.33;;;5.50;99.90;;;;;;5036679;28;20212;-87
2021/01/11 16:37:26;;;;;;;16.90;6.00;;;5.50;99.90;;;;;;5007354;28;20262;-87
2021/01/11 16:39:53;;;;;;;16.90;6.93;;;5.40;99.90;;;;;;5020351;28;20199;-88
2021/01/11 16:42:19;;;;;;;19.07;7.00;;;5.50;99.90;;;;;;5035917;28;20199;-87
2021/01/11 16:44:47;;;;;;;17.90;6.53;;;5.50;99.90;;;;;;5037370;28;20209;-86
2021/01/11 16:47:13;;;;;;;21.33;8.23;;;5.40;99.90;;;;;;5035934;28;20708;-87
2021/01/11 16:49:39;;;;;;;16.63;6.83;;;5.50;99.90;;;;;;5014806;28;20280;-87
2021/01/11 16:52:05;;;;;;;16.37;5.63;;;5.40;99.90;;;;;;5018753;28;20183;-88
2021/01/11 16:54:30;;;;;;;21.07;7.23;;;5.50;99.90;;;;;;5019541;28;20693;-87
2021/01/11 16:56:56;;;;;;;25.40;8.83;;;5.40;99.90;;;;;;5019809;28;20181;-88
2021/01/11 16:59:25;;;;;;;23.27;8.40;;;5.40;99.90;;;;;;5014829;28;20200;-88
2021/01/11 17:01:50;;;;;;;23.70;9.57;;;5.50;99.90;;;;;;5013481;28;20179;-87
2021/01/11 17:04:16;;;;;;;29.50;10.20;;;5.50;99.90;;;;;;5017736;28;20223;-87
2021/01/11 17:06:41;;;;;;;18.90;7.37;;;5.50;99.90;;;;;;5021573;28;20174;-87
2021/01/11 17:09:07;;;;;;;17.43;7.30;;;5.50;99.90;;;;;;5021220;28;20226;-88
2021/01/11 17:11:32;;;;;;;22.90;8.23;;;5.40;99.90;;;;;;5022115;28;20174;-86
2021/01/11 17:13:58;;;;;;;21.00;7.50;;;5.40;99.90;;;;;;5010074;28;20235;-87
2021/01/11 17:16:26;;;;;;;25.77;8.70;;;5.40;99.90;;;;;;5033378;28;20180;-88
2021/01/11 17:18:51;;;;;;;21.23;6.47;;;5.50;99.90;;;;;;5008939;28;20224;-87
2021/01/11 17:21:25;;;;;;;21.10;7.30;;;5.50;99.90;;;;;;5023668;28;20640;-87
